sensor_id;sensor_type;location;lat;lon;timestamp;P1;durP1;ratioP1;P2;durP2;ratioP2
60722;SDS011;46574;52.818;6.516;2023-11-18T00:00:51;26.67;;;18.13;;
60722;SDS011;46574;52.818;6.516;2023-11-18T00:03:17;50.35;;;20.20;;
60722;SDS011;46574;52.818;6.516;2023-11-18T00:05:42;28.50;;;19.02;;
60722;SDS011;46574;52.818;6.516;2023-11-18T00:08:08;22.40;;;18.70;;
60722;SDS011;46574;52.818;6.516;2023-11-18T00:10:33;20.88;;;15.68;;
60722;SDS011;46574;52.818;6.516;2023-11-18T00:12:59;32.60;;;19.92;;
60722;SDS011;46574;52.818;6.516;2023-11-18T00:15:26;31.23;;;19.63;;
60722;SDS011;46574;52.818;6.516;2023-11-18T00:17:52;24.60;;;18.10;;
60722;SDS011;46574;52.818;6.516;2023-11-18T00:20:18;55.72;;;21.38;;
60722;SDS011;46574;52.818;6.516;2023-11-18T00:22:45;23.50;;;17.55;;
60722;SDS011;46574;52.818;6.516;2023-11-18T00:25:11;29.15;;;19.25;;
60722;SDS011;46574;52.818;6.516;2023-11-18T00:27:39;22.33;;;16.90;;
60722;SDS011;46574;52.818;6.516;2023-11-18T00:30:05;32.13;;;19.60;;
60722;SDS011;46574;52.818;6.516;2023-11-18T00:32:36;21.73;;;17.45;;
60722;SDS011;46574;52.818;6.516;2023-11-18T00:35:02;24.17;;;18.02;;
60722;SDS011;46574;52.818;6.516;2023-11-18T00:37:29;18.92;;;16.65;;
60722;SDS011;46574;52.818;6.516;2023-11-18T00:39:56;25.10;;;19.30;;
60722;SDS011;46574;52.818;6.516;2023-11-18T00:42:22;22.63;;;17.30;;
60722;SDS011;46574;52.818;6.516;2023-11-18T00:44:47;23.10;;;17.80;;
60722;SDS011;46574;52.818;6.516;2023-11-18T00:47:13;22.48;;;17.85;;
60722;SDS011;46574;52.818;6.516;2023-11-18T00:49:39;22.50;;;17.98;;
60722;SDS011;46574;52.818;6.516;2023-11-18T00:52:05;20.30;;;16.70;;
60722;SDS011;46574;52.818;6.516;2023-11-18T00:54:31;27.45;;;19.40;;
60722;SDS011;46574;52.818;6.516;2023-11-18T00:56:57;18.58;;;15.63;;
60722;SDS011;46574;52.818;6.516;2023-11-18T00:59:23;24.77;;;18.98;;
60722;SDS011;46574;52.818;6.516;2023-11-18T01:01:49;19.63;;;16.48;;
60722;SDS011;46574;52.818;6.516;2023-11-18T01:04:15;22.48;;;18.40;;
60722;SDS011;46574;52.818;6.516;2023-11-18T01:06:42;30.08;;;19.90;;
60722;SDS011;46574;52.818;6.516;2023-11-18T01:09:08;29.65;;;20.70;;
60722;SDS011;46574;52.818;6.516;2023-11-18T01:11:34;30.95;;;20.00;;
60722;SDS011;46574;52.818;6.516;2023-11-18T01:14:01;32.00;;;21.00;;
60722;SDS011;46574;52.818;6.516;2023-11-18T01:16:27;43.70;;;21.17;;
60722;SDS011;46574;52.818;6.516;2023-11-18T01:18:53;29.85;;;19.15;;
60722;SDS011;46574;52.818;6.516;2023-11-18T01:21:19;32.70;;;20.13;;
60722;SDS011;46574;52.818;6.516;2023-11-18T01:23:45;26.70;;;18.38;;
60722;SDS011;46574;52.818;6.516;2023-11-18T01:26:11;28.92;;;17.77;;
60722;SDS011;46574;52.818;6.516;2023-11-18T01:28:37;29.02;;;18.15;;
60722;SDS011;46574;52.818;6.516;2023-11-18T01:33:38;25.23;;;16.85;;
60722;SDS011;46574;52.818;6.516;2023-11-18T01:36:05;26.38;;;18.65;;
60722;SDS011;46574;52.818;6.516;2023-11-18T01:38:33;38.40;;;20.63;;
60722;SDS011;46574;52.818;6.516;2023-11-18T01:40:59;35.83;;;21.90;;
60722;SDS011;46574;52.818;6.516;2023-11-18T01:43:28;22.50;;;17.92;;
60722;SDS011;46574;52.818;6.516;2023-11-18T01:45:55;26.27;;;19.00;;
60722;SDS011;46574;52.818;6.516;2023-11-18T01:48:22;30.90;;;21.08;;
60722;SDS011;46574;52.818;6.516;2023-11-18T01:50:51;37.03;;;21.35;;
60722;SDS011;46574;52.818;6.516;2023-11-18T01:53:17;32.60;;;21.17;;
60722;SDS011;46574;52.818;6.516;2023-11-18T01:55:42;29.90;;;20.63;;
60722;SDS011;46574;52.818;6.516;2023-11-18T01:58:08;31.13;;;20.48;;
60722;SDS011;46574;52.818;6.516;2023-11-18T02:00:45;27.35;;;18.42;;
60722;SDS011;46574;52.818;6.516;2023-11-18T02:03:11;29.42;;;20.33;;
60722;SDS011;46574;52.818;6.516;2023-11-18T02:05:38;34.42;;;20.50;;
60722;SDS011;46574;52.818;6.516;2023-11-18T02:08:04;35.45;;;21.08;;
60722;SDS011;46574;52.818;6.516;2023-11-18T02:10:34;27.75;;;19.73;;
60722;SDS011;46574;52.818;6.516;2023-11-18T02:15:37;21.70;;;17.08;;
60722;SDS011;46574;52.818;6.516;2023-11-18T02:18:06;26.25;;;19.00;;
60722;SDS011;46574;52.818;6.516;2023-11-18T02:20:34;29.05;;;20.30;;
60722;SDS011;46574;52.818;6.516;2023-11-18T02:23:01;33.30;;;21.33;;
60722;SDS011;46574;52.818;6.516;2023-11-18T02:25:27;36.25;;;23.27;;
60722;SDS011;46574;52.818;6.516;2023-11-18T02:27:55;40.05;;;22.17;;
60722;SDS011;46574;52.818;6.516;2023-11-18T02:30:21;43.88;;;23.17;;
60722;SDS011;46574;52.818;6.516;2023-11-18T02:35:28;26.20;;;18.45;;
60722;SDS011;46574;52.818;6.516;2023-11-18T02:37:54;24.77;;;17.83;;
60722;SDS011;46574;52.818;6.516;2023-11-18T02:40:40;31.55;;;20.77;;
60722;SDS011;46574;52.818;6.516;2023-11-18T02:43:08;33.33;;;21.65;;
60722;SDS011;46574;52.818;6.516;2023-11-18T02:45:35;33.33;;;21.85;;
60722;SDS011;46574;52.818;6.516;2023-11-18T02:48:02;32.40;;;19.58;;
60722;SDS011;46574;52.818;6.516;2023-11-18T02:50:29;30.90;;;21.40;;
60722;SDS011;46574;52.818;6.516;2023-11-18T02:52:55;34.85;;;22.35;;
60722;SDS011;46574;52.818;6.516;2023-11-18T02:55:21;34.03;;;21.65;;
60722;SDS011;46574;52.818;6.516;2023-11-18T02:57:48;48.80;;;24.35;;
60722;SDS011;46574;52.818;6.516;2023-11-18T03:00:14;51.35;;;24.10;;
60722;SDS011;46574;52.818;6.516;2023-11-18T03:02:47;58.42;;;25.70;;
60722;SDS011;46574;52.818;6.516;2023-11-18T03:05:16;65.80;;;26.40;;
60722;SDS011;46574;52.818;6.516;2023-11-18T03:07:49;42.47;;;24.20;;
60722;SDS011;46574;52.818;6.516;2023-11-18T03:10:16;41.97;;;25.77;;
60722;SDS011;46574;52.818;6.516;2023-11-18T03:15:14;118.85;;;30.90;;
60722;SDS011;46574;52.818;6.516;2023-11-18T03:17:43;35.90;;;22.42;;
60722;SDS011;46574;52.818;6.516;2023-11-18T03:20:10;29.40;;;19.23;;
60722;SDS011;46574;52.818;6.516;2023-11-18T03:22:39;40.55;;;24.42;;
60722;SDS011;46574;52.818;6.516;2023-11-18T03:25:05;45.25;;;24.35;;
60722;SDS011;46574;52.818;6.516;2023-11-18T03:27:32;33.00;;;21.83;;
60722;SDS011;46574;52.818;6.516;2023-11-18T03:29:58;67.88;;;27.90;;
60722;SDS011;46574;52.818;6.516;2023-11-18T03:32:24;39.72;;;23.42;;
60722;SDS011;46574;52.818;6.516;2023-11-18T03:34:49;50.45;;;26.33;;
60722;SDS011;46574;52.818;6.516;2023-11-18T03:37:15;49.65;;;27.77;;
60722;SDS011;46574;52.818;6.516;2023-11-18T03:39:41;49.15;;;28.08;;
60722;SDS011;46574;52.818;6.516;2023-11-18T03:42:06;54.42;;;27.30;;
60722;SDS011;46574;52.818;6.516;2023-11-18T03:44:33;54.55;;;27.23;;
60722;SDS011;46574;52.818;6.516;2023-11-18T03:46:59;60.65;;;27.80;;
60722;SDS011;46574;52.818;6.516;2023-11-18T03:49:24;48.20;;;26.00;;
60722;SDS011;46574;52.818;6.516;2023-11-18T03:51:50;37.30;;;22.17;;
60722;SDS011;46574;52.818;6.516;2023-11-18T03:54:16;42.30;;;22.92;;
60722;SDS011;46574;52.818;6.516;2023-11-18T03:56:41;61.55;;;29.83;;
60722;SDS011;46574;52.818;6.516;2023-11-18T03:59:07;39.78;;;24.60;;
60722;SDS011;46574;52.818;6.516;2023-11-18T04:01:34;53.78;;;27.38;;
60722;SDS011;46574;52.818;6.516;2023-11-18T04:04:00;48.45;;;26.08;;
60722;SDS011;46574;52.818;6.516;2023-11-18T04:06:25;42.25;;;25.00;;
60722;SDS011;46574;52.818;6.516;2023-11-18T04:08:51;54.95;;;27.98;;
60722;SDS011;46574;52.818;6.516;2023-11-18T04:11:17;49.17;;;27.48;;
60722;SDS011;46574;52.818;6.516;2023-11-18T04:13:43;54.80;;;29.10;;
60722;SDS011;46574;52.818;6.516;2023-11-18T04:16:13;51.28;;;26.30;;
60722;SDS011;46574;52.818;6.516;2023-11-18T04:18:40;71.47;;;31.27;;
60722;SDS011;46574;52.818;6.516;2023-11-18T04:21:06;40.83;;;24.85;;
60722;SDS011;46574;52.818;6.516;2023-11-18T04:23:39;61.58;;;29.83;;
60722;SDS011;46574;52.818;6.516;2023-11-18T04:26:06;42.97;;;25.45;;
60722;SDS011;46574;52.818;6.516;2023-11-18T04:28:33;60.33;;;29.08;;
60722;SDS011;46574;52.818;6.516;2023-11-18T04:30:59;49.30;;;26.45;;
60722;SDS011;46574;52.818;6.516;2023-11-18T04:33:25;162.88;;;38.58;;
60722;SDS011;46574;52.818;6.516;2023-11-18T04:35:52;57.72;;;30.08;;
60722;SDS011;46574;52.818;6.516;2023-11-18T04:38:20;60.35;;;29.42;;
60722;SDS011;46574;52.818;6.516;2023-11-18T04:43:12;56.50;;;28.67;;
60722;SDS011;46574;52.818;6.516;2023-11-18T04:45:38;48.72;;;27.30;;
60722;SDS011;46574;52.818;6.516;2023-11-18T04:48:04;169.40;;;38.63;;
60722;SDS011;46574;52.818;6.516;2023-11-18T04:50:30;142.57;;;37.80;;
60722;SDS011;46574;52.818;6.516;2023-11-18T04:52:57;72.35;;;33.28;;
60722;SDS011;46574;52.818;6.516;2023-11-18T04:55:23;77.55;;;32.92;;
60722;SDS011;46574;52.818;6.516;2023-11-18T04:57:51;85.93;;;34.80;;
60722;SDS011;46574;52.818;6.516;2023-11-18T05:00:17;50.28;;;27.67;;
60722;SDS011;46574;52.818;6.516;2023-11-18T05:02:44;59.55;;;31.73;;
60722;SDS011;46574;52.818;6.516;2023-11-18T05:05:14;70.05;;;34.55;;
60722;SDS011;46574;52.818;6.516;2023-11-18T05:07:40;55.03;;;30.48;;
60722;SDS011;46574;52.818;6.516;2023-11-18T05:10:07;93.32;;;38.83;;
60722;SDS011;46574;52.818;6.516;2023-11-18T05:12:34;70.68;;;34.53;;
60722;SDS011;46574;52.818;6.516;2023-11-18T05:14:59;59.22;;;31.63;;
60722;SDS011;46574;52.818;6.516;2023-11-18T05:17:26;76.43;;;39.70;;
60722;SDS011;46574;52.818;6.516;2023-11-18T05:19:52;59.85;;;33.03;;
60722;SDS011;46574;52.818;6.516;2023-11-18T05:22:19;86.68;;;39.55;;
60722;SDS011;46574;52.818;6.516;2023-11-18T05:24:46;58.35;;;31.52;;
60722;SDS011;46574;52.818;6.516;2023-11-18T05:27:13;83.05;;;40.33;;
60722;SDS011;46574;52.818;6.516;2023-11-18T05:29:39;96.38;;;40.75;;
60722;SDS011;46574;52.818;6.516;2023-11-18T05:32:07;67.72;;;35.90;;
60722;SDS011;46574;52.818;6.516;2023-11-18T05:34:33;97.65;;;42.75;;
60722;SDS011;46574;52.818;6.516;2023-11-18T05:37:00;77.47;;;40.00;;
60722;SDS011;46574;52.818;6.516;2023-11-18T05:39:26;71.10;;;36.05;;
60722;SDS011;46574;52.818;6.516;2023-11-18T05:41:56;78.75;;;37.03;;
60722;SDS011;46574;52.818;6.516;2023-11-18T05:44:23;64.68;;;34.08;;
60722;SDS011;46574;52.818;6.516;2023-11-18T05:46:58;88.68;;;39.33;;
60722;SDS011;46574;52.818;6.516;2023-11-18T05:49:24;79.32;;;36.55;;
60722;SDS011;46574;52.818;6.516;2023-11-18T05:51:50;111.95;;;41.97;;
60722;SDS011;46574;52.818;6.516;2023-11-18T05:54:17;64.68;;;32.78;;
60722;SDS011;46574;52.818;6.516;2023-11-18T05:56:43;149.32;;;44.88;;
60722;SDS011;46574;52.818;6.516;2023-11-18T05:59:08;59.70;;;31.90;;
60722;SDS011;46574;52.818;6.516;2023-11-18T06:01:35;63.30;;;33.03;;
60722;SDS011;46574;52.818;6.516;2023-11-18T06:04:02;79.00;;;36.97;;
60722;SDS011;46574;52.818;6.516;2023-11-18T06:06:28;62.35;;;31.63;;
60722;SDS011;46574;52.818;6.516;2023-11-18T06:08:56;99.57;;;36.58;;
60722;SDS011;46574;52.818;6.516;2023-11-18T06:11:24;63.78;;;31.90;;
60722;SDS011;46574;52.818;6.516;2023-11-18T06:13:50;56.42;;;30.33;;
60722;SDS011;46574;52.818;6.516;2023-11-18T06:16:17;82.10;;;34.55;;
60722;SDS011;46574;52.818;6.516;2023-11-18T06:18:45;60.30;;;31.35;;
60722;SDS011;46574;52.818;6.516;2023-11-18T06:21:12;57.10;;;29.85;;
60722;SDS011;46574;52.818;6.516;2023-11-18T06:23:43;82.07;;;33.75;;
60722;SDS011;46574;52.818;6.516;2023-11-18T06:26:10;71.65;;;31.00;;
60722;SDS011;46574;52.818;6.516;2023-11-18T06:28:40;60.53;;;30.70;;
60722;SDS011;46574;52.818;6.516;2023-11-18T06:31:06;66.03;;;31.38;;
60722;SDS011;46574;52.818;6.516;2023-11-18T06:33:37;63.20;;;31.50;;
60722;SDS011;46574;52.818;6.516;2023-11-18T06:36:05;49.10;;;27.02;;
60722;SDS011;46574;52.818;6.516;2023-11-18T06:38:32;82.10;;;32.53;;
60722;SDS011;46574;52.818;6.516;2023-11-18T06:40:59;58.42;;;28.75;;
60722;SDS011;46574;52.818;6.516;2023-11-18T06:43:27;53.83;;;29.30;;
60722;SDS011;46574;52.818;6.516;2023-11-18T06:46:01;61.78;;;30.50;;
60722;SDS011;46574;52.818;6.516;2023-11-18T06:48:27;84.60;;;33.17;;
60722;SDS011;46574;52.818;6.516;2023-11-18T06:50:52;58.25;;;29.42;;
60722;SDS011;46574;52.818;6.516;2023-11-18T06:53:18;62.60;;;29.45;;
60722;SDS011;46574;52.818;6.516;2023-11-18T06:55:45;88.47;;;35.53;;
60722;SDS011;46574;52.818;6.516;2023-11-18T06:58:11;59.15;;;30.85;;
60722;SDS011;46574;52.818;6.516;2023-11-18T07:00:38;57.95;;;31.23;;
60722;SDS011;46574;52.818;6.516;2023-11-18T07:03:03;84.47;;;36.22;;
60722;SDS011;46574;52.818;6.516;2023-11-18T07:05:30;89.47;;;36.70;;
60722;SDS011;46574;52.818;6.516;2023-11-18T07:07:56;125.93;;;42.83;;
60722;SDS011;46574;52.818;6.516;2023-11-18T07:10:22;80.13;;;36.35;;
60722;SDS011;46574;52.818;6.516;2023-11-18T07:12:47;81.43;;;37.72;;
60722;SDS011;46574;52.818;6.516;2023-11-18T07:15:14;78.00;;;37.83;;
60722;SDS011;46574;52.818;6.516;2023-11-18T07:17:40;109.60;;;43.00;;
60722;SDS011;46574;52.818;6.516;2023-11-18T07:20:06;85.82;;;37.03;;
60722;SDS011;46574;52.818;6.516;2023-11-18T07:22:32;83.00;;;38.67;;
60722;SDS011;46574;52.818;6.516;2023-11-18T07:24:57;67.63;;;31.52;;
60722;SDS011;46574;52.818;6.516;2023-11-18T07:27:23;95.15;;;37.22;;
60722;SDS011;46574;52.818;6.516;2023-11-18T07:29:48;84.82;;;37.75;;
60722;SDS011;46574;52.818;6.516;2023-11-18T07:32:14;88.85;;;36.05;;
60722;SDS011;46574;52.818;6.516;2023-11-18T07:34:40;73.88;;;32.80;;
60722;SDS011;46574;52.818;6.516;2023-11-18T07:37:06;61.72;;;31.45;;
60722;SDS011;46574;52.818;6.516;2023-11-18T07:39:33;79.93;;;35.63;;
60722;SDS011;46574;52.818;6.516;2023-11-18T07:42:13;64.53;;;33.47;;
60722;SDS011;46574;52.818;6.516;2023-11-18T07:44:40;141.32;;;42.35;;
60722;SDS011;46574;52.818;6.516;2023-11-18T07:47:06;86.97;;;37.00;;
60722;SDS011;46574;52.818;6.516;2023-11-18T07:49:35;72.28;;;34.45;;
60722;SDS011;46574;52.818;6.516;2023-11-18T07:52:04;71.45;;;35.13;;
60722;SDS011;46574;52.818;6.516;2023-11-18T07:54:31;73.90;;;34.40;;
60722;SDS011;46574;52.818;6.516;2023-11-18T07:56:56;73.88;;;34.03;;
60722;SDS011;46574;52.818;6.516;2023-11-18T07:59:22;73.32;;;33.88;;
60722;SDS011;46574;52.818;6.516;2023-11-18T08:01:49;81.68;;;37.10;;
60722;SDS011;46574;52.818;6.516;2023-11-18T08:04:15;82.70;;;37.13;;
60722;SDS011;46574;52.818;6.516;2023-11-18T08:06:42;94.70;;;38.83;;
60722;SDS011;46574;52.818;6.516;2023-11-18T08:09:11;93.18;;;39.35;;
60722;SDS011;46574;52.818;6.516;2023-11-18T08:11:40;69.28;;;34.47;;
60722;SDS011;46574;52.818;6.516;2023-11-18T08:14:09;101.65;;;38.67;;
60722;SDS011;46574;52.818;6.516;2023-11-18T08:16:35;71.32;;;33.97;;
60722;SDS011;46574;52.818;6.516;2023-11-18T08:19:03;87.97;;;36.70;;
60722;SDS011;46574;52.818;6.516;2023-11-18T08:21:30;72.55;;;34.22;;
60722;SDS011;46574;52.818;6.516;2023-11-18T08:23:56;64.13;;;32.20;;
60722;SDS011;46574;52.818;6.516;2023-11-18T08:26:25;102.78;;;41.42;;
60722;SDS011;46574;52.818;6.516;2023-11-18T08:28:51;75.70;;;36.63;;
60722;SDS011;46574;52.818;6.516;2023-11-18T08:31:17;84.18;;;37.78;;
60722;SDS011;46574;52.818;6.516;2023-11-18T08:33:42;79.97;;;36.53;;
60722;SDS011;46574;52.818;6.516;2023-11-18T08:36:08;102.13;;;41.88;;
60722;SDS011;46574;52.818;6.516;2023-11-18T08:38:34;91.75;;;39.33;;
60722;SDS011;46574;52.818;6.516;2023-11-18T08:41:00;98.60;;;41.25;;
60722;SDS011;46574;52.818;6.516;2023-11-18T08:43:26;89.28;;;39.72;;
60722;SDS011;46574;52.818;6.516;2023-11-18T08:45:55;91.35;;;38.72;;
60722;SDS011;46574;52.818;6.516;2023-11-18T08:48:21;94.78;;;40.33;;
60722;SDS011;46574;52.818;6.516;2023-11-18T08:50:48;91.13;;;39.60;;
60722;SDS011;46574;52.818;6.516;2023-11-18T08:53:13;93.03;;;40.70;;
60722;SDS011;46574;52.818;6.516;2023-11-18T08:58:21;73.93;;;35.15;;
60722;SDS011;46574;52.818;6.516;2023-11-18T09:00:51;86.63;;;36.60;;
60722;SDS011;46574;52.818;6.516;2023-11-18T09:03:29;88.15;;;40.08;;
60722;SDS011;46574;52.818;6.516;2023-11-18T09:06:02;90.35;;;39.20;;
60722;SDS011;46574;52.818;6.516;2023-11-18T09:08:35;86.90;;;40.03;;
60722;SDS011;46574;52.818;6.516;2023-11-18T09:11:07;88.53;;;41.95;;
60722;SDS011;46574;52.818;6.516;2023-11-18T09:13:36;91.00;;;40.22;;
60722;SDS011;46574;52.818;6.516;2023-11-18T09:18:40;102.88;;;43.85;;
60722;SDS011;46574;52.818;6.516;2023-11-18T09:21:10;91.07;;;41.97;;
60722;SDS011;46574;52.818;6.516;2023-11-18T09:23:49;85.85;;;39.58;;
60722;SDS011;46574;52.818;6.516;2023-11-18T09:26:15;91.60;;;42.35;;
60722;SDS011;46574;52.818;6.516;2023-11-18T09:28:41;99.45;;;45.00;;
60722;SDS011;46574;52.818;6.516;2023-11-18T09:33:37;94.45;;;45.03;;
60722;SDS011;46574;52.818;6.516;2023-11-18T09:36:08;95.43;;;44.40;;
60722;SDS011;46574;52.818;6.516;2023-11-18T09:38:40;104.65;;;47.38;;
60722;SDS011;46574;52.818;6.516;2023-11-18T09:41:07;91.03;;;44.53;;
60722;SDS011;46574;52.818;6.516;2023-11-18T09:43:43;91.70;;;44.03;;
60722;SDS011;46574;52.818;6.516;2023-11-18T09:46:16;79.32;;;40.60;;
60722;SDS011;46574;52.818;6.516;2023-11-18T09:48:49;98.03;;;45.90;;
60722;SDS011;46574;52.818;6.516;2023-11-18T09:51:21;88.57;;;43.78;;
60722;SDS011;46574;52.818;6.516;2023-11-18T09:53:49;81.30;;;41.78;;
60722;SDS011;46574;52.818;6.516;2023-11-18T09:56:40;80.35;;;41.05;;
60722;SDS011;46574;52.818;6.516;2023-11-18T09:59:31;78.35;;;41.08;;
60722;SDS011;46574;52.818;6.516;2023-11-18T10:02:02;89.60;;;42.95;;
60722;SDS011;46574;52.818;6.516;2023-11-18T10:04:29;75.50;;;40.55;;
60722;SDS011;46574;52.818;6.516;2023-11-18T10:06:56;80.07;;;41.85;;
60722;SDS011;46574;52.818;6.516;2023-11-18T10:09:24;75.20;;;41.05;;
60722;SDS011;46574;52.818;6.516;2023-11-18T10:12:06;67.03;;;37.40;;
60722;SDS011;46574;52.818;6.516;2023-11-18T10:14:35;70.70;;;38.50;;
60722;SDS011;46574;52.818;6.516;2023-11-18T10:17:07;63.90;;;37.00;;
60722;SDS011;46574;52.818;6.516;2023-11-18T10:19:49;55.65;;;33.30;;
60722;SDS011;46574;52.818;6.516;2023-11-18T10:22:37;55.30;;;32.28;;
60722;SDS011;46574;52.818;6.516;2023-11-18T10:25:03;57.10;;;32.53;;
60722;SDS011;46574;52.818;6.516;2023-11-18T10:27:31;49.67;;;29.98;;
60722;SDS011;46574;52.818;6.516;2023-11-18T10:30:05;51.92;;;29.98;;
60722;SDS011;46574;52.818;6.516;2023-11-18T10:32:44;49.03;;;29.83;;
60722;SDS011;46574;52.818;6.516;2023-11-18T10:35:34;44.92;;;28.10;;
60722;SDS011;46574;52.818;6.516;2023-11-18T10:38:03;42.17;;;27.48;;
60722;SDS011;46574;52.818;6.516;2023-11-18T10:40:32;45.55;;;27.95;;
60722;SDS011;46574;52.818;6.516;2023-11-18T10:43:05;46.65;;;27.23;;
60722;SDS011;46574;52.818;6.516;2023-11-18T10:45:35;41.65;;;26.08;;
60722;SDS011;46574;52.818;6.516;2023-11-18T10:48:07;42.25;;;24.73;;
60722;SDS011;46574;52.818;6.516;2023-11-18T10:50:33;45.55;;;27.50;;
60722;SDS011;46574;52.818;6.516;2023-11-18T10:52:59;42.35;;;27.63;;
60722;SDS011;46574;52.818;6.516;2023-11-18T10:55:36;44.88;;;27.77;;
60722;SDS011;46574;52.818;6.516;2023-11-18T10:58:05;42.45;;;24.85;;
60722;SDS011;46574;52.818;6.516;2023-11-18T11:00:47;43.17;;;27.20;;
60722;SDS011;46574;52.818;6.516;2023-11-18T11:03:20;46.53;;;27.90;;
60722;SDS011;46574;52.818;6.516;2023-11-18T11:05:50;42.38;;;25.50;;
60722;SDS011;46574;52.818;6.516;2023-11-18T11:08:17;46.22;;;27.90;;
60722;SDS011;46574;52.818;6.516;2023-11-18T11:10:45;43.63;;;27.70;;
60722;SDS011;46574;52.818;6.516;2023-11-18T11:13:14;37.47;;;24.25;;
60722;SDS011;46574;52.818;6.516;2023-11-18T11:15:43;38.58;;;24.75;;
60722;SDS011;46574;52.818;6.516;2023-11-18T11:18:11;40.08;;;25.00;;
60722;SDS011;46574;52.818;6.516;2023-11-18T11:24:06;41.38;;;26.15;;
60722;SDS011;46574;52.818;6.516;2023-11-18T11:32:18;39.97;;;26.30;;
60722;SDS011;46574;52.818;6.516;2023-11-18T11:34:53;41.27;;;27.03;;
60722;SDS011;46574;52.818;6.516;2023-11-18T11:37:24;41.35;;;25.45;;
60722;SDS011;46574;52.818;6.516;2023-11-18T11:39:55;39.20;;;25.08;;
60722;SDS011;46574;52.818;6.516;2023-11-18T11:42:23;38.60;;;25.00;;
60722;SDS011;46574;52.818;6.516;2023-11-18T11:44:49;41.15;;;27.25;;
60722;SDS011;46574;52.818;6.516;2023-11-18T11:49:50;35.05;;;22.52;;
60722;SDS011;46574;52.818;6.516;2023-11-18T11:52:32;37.45;;;25.38;;
60722;SDS011;46574;52.818;6.516;2023-11-18T11:57:40;37.10;;;22.98;;
60722;SDS011;46574;52.818;6.516;2023-11-18T12:00:10;35.25;;;22.95;;
60722;SDS011;46574;52.818;6.516;2023-11-18T12:02:49;36.90;;;23.48;;
60722;SDS011;46574;52.818;6.516;2023-11-18T12:05:17;34.47;;;22.70;;
60722;SDS011;46574;52.818;6.516;2023-11-18T12:07:44;35.70;;;22.08;;
60722;SDS011;46574;52.818;6.516;2023-11-18T12:10:12;33.00;;;21.45;;
60722;SDS011;46574;52.818;6.516;2023-11-18T12:12:40;36.80;;;23.00;;
60722;SDS011;46574;52.818;6.516;2023-11-18T12:15:07;34.50;;;22.13;;
60722;SDS011;46574;52.818;6.516;2023-11-18T12:25:50;34.40;;;21.63;;
60722;SDS011;46574;52.818;6.516;2023-11-18T12:28:26;34.30;;;21.55;;
60722;SDS011;46574;52.818;6.516;2023-11-18T12:30:53;36.63;;;22.17;;
60722;SDS011;46574;52.818;6.516;2023-11-18T12:33:23;33.10;;;21.50;;
60722;SDS011;46574;52.818;6.516;2023-11-18T12:49:40;34.15;;;21.55;;
60722;SDS011;46574;52.818;6.516;2023-11-18T12:52:10;30.00;;;19.13;;
60722;SDS011;46574;52.818;6.516;2023-11-18T12:54:40;32.17;;;20.30;;
60722;SDS011;46574;52.818;6.516;2023-11-18T12:57:12;35.75;;;23.55;;
60722;SDS011;46574;52.818;6.516;2023-11-18T12:59:40;39.38;;;24.70;;
60722;SDS011;46574;52.818;6.516;2023-11-18T13:02:07;39.95;;;23.88;;
60722;SDS011;46574;52.818;6.516;2023-11-18T13:04:44;32.58;;;20.08;;
60722;SDS011;46574;52.818;6.516;2023-11-18T13:07:16;38.60;;;23.85;;
60722;SDS011;46574;52.818;6.516;2023-11-18T13:09:46;38.90;;;23.52;;
60722;SDS011;46574;52.818;6.516;2023-11-18T13:12:13;32.28;;;21.42;;
60722;SDS011;46574;52.818;6.516;2023-11-18T13:14:40;30.52;;;19.58;;
60722;SDS011;46574;52.818;6.516;2023-11-18T13:17:14;31.98;;;20.58;;
60722;SDS011;46574;52.818;6.516;2023-11-18T13:19:41;30.48;;;20.77;;
60722;SDS011;46574;52.818;6.516;2023-11-18T13:22:08;32.95;;;20.45;;
60722;SDS011;46574;52.818;6.516;2023-11-18T13:24:35;30.95;;;20.42;;
60722;SDS011;46574;52.818;6.516;2023-11-18T13:27:06;30.63;;;20.15;;
60722;SDS011;46574;52.818;6.516;2023-11-18T13:29:38;30.48;;;19.20;;
60722;SDS011;46574;52.818;6.516;2023-11-18T13:32:04;30.55;;;19.40;;
60722;SDS011;46574;52.818;6.516;2023-11-18T13:34:32;32.97;;;20.65;;
60722;SDS011;46574;52.818;6.516;2023-11-18T13:37:02;31.02;;;19.27;;
60722;SDS011;46574;52.818;6.516;2023-11-18T13:39:32;30.98;;;20.08;;
60722;SDS011;46574;52.818;6.516;2023-11-18T13:42:22;30.65;;;18.98;;
60722;SDS011;46574;52.818;6.516;2023-11-18T13:44:49;33.75;;;20.40;;
60722;SDS011;46574;52.818;6.516;2023-11-18T13:47:16;29.90;;;18.70;;
60722;SDS011;46574;52.818;6.516;2023-11-18T13:49:42;27.90;;;19.30;;
60722;SDS011;46574;52.818;6.516;2023-11-18T13:52:09;28.88;;;18.33;;
60722;SDS011;46574;52.818;6.516;2023-11-18T13:54:39;28.30;;;19.73;;
60722;SDS011;46574;52.818;6.516;2023-11-18T13:57:06;26.73;;;17.35;;
60722;SDS011;46574;52.818;6.516;2023-11-18T13:59:32;27.23;;;18.20;;
60722;SDS011;46574;52.818;6.516;2023-11-18T14:01:59;28.42;;;18.52;;
60722;SDS011;46574;52.818;6.516;2023-11-18T14:04:29;28.67;;;18.45;;
60722;SDS011;46574;52.818;6.516;2023-11-18T14:06:57;22.88;;;17.17;;
60722;SDS011;46574;52.818;6.516;2023-11-18T14:09:24;29.95;;;17.92;;
60722;SDS011;46574;52.818;6.516;2023-11-18T14:11:52;30.08;;;17.58;;
60722;SDS011;46574;52.818;6.516;2023-11-18T14:14:20;27.40;;;17.70;;
60722;SDS011;46574;52.818;6.516;2023-11-18T14:16:46;26.70;;;17.42;;
60722;SDS011;46574;52.818;6.516;2023-11-18T14:19:12;24.42;;;17.13;;
60722;SDS011;46574;52.818;6.516;2023-11-18T14:21:38;27.65;;;18.75;;
60722;SDS011;46574;52.818;6.516;2023-11-18T14:24:06;27.08;;;18.55;;
60722;SDS011;46574;52.818;6.516;2023-11-18T14:26:37;27.92;;;20.15;;
60722;SDS011;46574;52.818;6.516;2023-11-18T14:29:05;27.67;;;19.40;;
60722;SDS011;46574;52.818;6.516;2023-11-18T14:31:31;24.50;;;18.08;;
60722;SDS011;46574;52.818;6.516;2023-11-18T14:33:59;26.05;;;18.13;;
60722;SDS011;46574;52.818;6.516;2023-11-18T14:36:25;26.23;;;18.08;;
60722;SDS011;46574;52.818;6.516;2023-11-18T14:38:51;27.55;;;17.30;;
60722;SDS011;46574;52.818;6.516;2023-11-18T14:41:18;25.50;;;16.85;;
60722;SDS011;46574;52.818;6.516;2023-11-18T14:43:45;24.63;;;16.80;;
60722;SDS011;46574;52.818;6.516;2023-11-18T14:46:11;26.25;;;17.33;;
60722;SDS011;46574;52.818;6.516;2023-11-18T14:48:38;24.80;;;17.77;;
60722;SDS011;46574;52.818;6.516;2023-11-18T14:51:03;23.65;;;16.40;;
60722;SDS011;46574;52.818;6.516;2023-11-18T14:53:30;26.13;;;18.27;;
60722;SDS011;46574;52.818;6.516;2023-11-18T14:55:56;26.65;;;18.15;;
60722;SDS011;46574;52.818;6.516;2023-11-18T14:58:23;27.83;;;18.55;;
60722;SDS011;46574;52.818;6.516;2023-11-18T15:00:48;25.30;;;18.48;;
60722;SDS011;46574;52.818;6.516;2023-11-18T15:03:14;24.88;;;17.90;;
60722;SDS011;46574;52.818;6.516;2023-11-18T15:05:41;22.52;;;16.58;;
60722;SDS011;46574;52.818;6.516;2023-11-18T15:08:09;21.80;;;16.95;;
60722;SDS011;46574;52.818;6.516;2023-11-18T15:10:35;24.20;;;16.08;;
60722;SDS011;46574;52.818;6.516;2023-11-18T15:13:02;26.05;;;18.27;;
60722;SDS011;46574;52.818;6.516;2023-11-18T15:15:29;26.25;;;18.88;;
60722;SDS011;46574;52.818;6.516;2023-11-18T15:17:59;26.90;;;19.00;;
60722;SDS011;46574;52.818;6.516;2023-11-18T15:20:29;26.48;;;19.33;;
60722;SDS011;46574;52.818;6.516;2023-11-18T15:22:55;25.92;;;18.52;;